Time;durP1;ratioP1;P1;durP2;ratioP2;P2;SDS_P1;SDS_P2;PMS_P1;PMS_P2;Temp;Humidity;BMP_temperature;BMP_pressure;BME280_temperature;BME280_humidity;BME280_pressure;Samples;Min_cycle;Max_cycle;Signal;HPM_P1;HPM_P2
2022/11/08 00:02:03;;;;;;;9.60;6.05;;;;;;;;;;4987141;28;20031;-73
2022/11/08 00:04:29;;;;;;;5.20;4.68;;;;;;;;;;4988245;28;20495;-74
2022/11/08 00:15:08;;;;;;;9.93;5.15;;;;;;;;;;4964559;28;20034;-74
2022/11/08 00:17:34;;;;;;;5.47;4.70;;;;;;;;;;4982555;28;20098;-73
2022/11/08 00:20:02;;;;;;;7.07;4.47;;;;;;;;;;4970183;28;20035;-74
2022/11/08 00:22:31;;;;;;;10.30;5.63;;;;;;;;;;4968931;28;20041;-74
2022/11/08 00:24:57;;;;;;;7.28;4.20;;;;;;;;;;4970709;28;20026;-74
2022/11/08 00:27:28;;;;;;;5.57;4.80;;;;;;;;;;4966328;28;20041;-73
2022/11/08 00:29:54;;;;;;;7.65;4.97;;;;;;;;;;4985635;28;20030;-73
2022/11/08 00:32:21;;;;;;;8.05;4.22;;;;;;;;;;4966177;28;20031;-73
2022/11/08 00:34:47;;;;;;;8.75;4.53;;;;;;;;;;4953492;28;20034;-73
2022/11/08 00:37:14;;;;;;;6.25;4.90;;;;;;;;;;4952282;28;20046;-74
2022/11/08 00:39:40;;;;;;;6.93;5.50;;;;;;;;;;4971827;28;20045;-74
2022/11/08 00:42:06;;;;;;;8.13;6.15;;;;;;;;;;4967124;28;20030;-73
2022/11/08 00:44:34;;;;;;;6.25;5.45;;;;;;;;;;4983583;28;20737;-73
2022/11/08 00:47:00;;;;;;;7.90;4.63;;;;;;;;;;4968277;28;20121;-74
2022/11/08 00:49:26;;;;;;;5.43;4.65;;;;;;;;;;4970103;28;20488;-73
2022/11/08 00:51:57;;;;;;;7.70;5.22;;;;;;;;;;4969471;28;20484;-73
2022/11/08 00:54:23;;;;;;;38.17;6.07;;;;;;;;;;4974598;28;20038;-74
2022/11/08 00:56:49;;;;;;;5.65;5.07;;;;;;;;;;4989622;28;20101;-73
2022/11/08 00:59:16;;;;;;;4.72;3.58;;;;;;;;;;4987778;28;20049;-73
2022/11/08 01:01:42;;;;;;;4.45;3.83;;;;;;;;;;4971291;28;20019;-73
2022/11/08 01:04:08;;;;;;;6.25;4.20;;;;;;;;;;4974963;28;20034;-73
2022/11/08 01:06:39;;;;;;;6.05;3.55;;;;;;;;;;4974848;28;20033;-73
2022/11/08 01:09:05;;;;;;;15.70;5.25;;;;;;;;;;4973559;28;20034;-73
2022/11/08 01:11:31;;;;;;;10.38;5.53;;;;;;;;;;4988928;28;20022;-73
2022/11/08 01:14:00;;;;;;;38.13;7.22;;;;;;;;;;4988565;28;20053;-74
2022/11/08 01:16:29;;;;;;;13.35;5.93;;;;;;;;;;4972450;28;20033;-73
2022/11/08 01:19:01;;;;;;;8.77;6.05;;;;;;;;;;4984373;28;20041;-73
2022/11/08 01:21:29;;;;;;;9.90;5.53;;;;;;;;;;4987528;28;20531;-73
2022/11/08 01:23:57;;;;;;;5.70;4.30;;;;;;;;;;4973278;28;20042;-73
2022/11/08 01:26:26;;;;;;;6.07;4.10;;;;;;;;;;4987457;28;20507;-74
2022/11/08 01:28:55;;;;;;;21.05;5.82;;;;;;;;;;4989516;28;20046;-74
2022/11/08 01:31:22;;;;;;;11.18;6.13;;;;;;;;;;4986661;28;20477;-73
2022/11/08 01:33:48;;;;;;;19.95;7.13;;;;;;;;;;4990656;28;20037;-73
2022/11/08 01:36:15;;;;;;;12.60;5.35;;;;;;;;;;4987249;28;20027;-74
2022/11/08 01:38:44;;;;;;;13.65;5.93;;;;;;;;;;4989383;28;20037;-73
2022/11/08 01:41:13;;;;;;;7.55;4.30;;;;;;;;;;4987215;28;20034;-73
2022/11/08 01:43:41;;;;;;;21.65;7.40;;;;;;;;;;4970752;28;20026;-74
2022/11/08 01:46:30;;;;;;;14.93;6.18;;;;;;;;;;4989393;28;20036;-74
2022/11/08 01:49:15;;;;;;;6.38;4.95;;;;;;;;;;4946762;28;20034;-74
2022/11/08 01:51:45;;;;;;;8.77;4.15;;;;;;;;;;4987826;28;20030;-74
2022/11/08 01:54:13;;;;;;;6.32;4.40;;;;;;;;;;4988576;28;20485;-74
2022/11/08 01:56:40;;;;;;;13.75;4.72;;;;;;;;;;4989096;28;20027;-74
2022/11/08 01:59:08;;;;;;;4.70;3.95;;;;;;;;;;4987788;28;20397;-74
2022/11/08 02:01:35;;;;;;;7.15;3.95;;;;;;;;;;4971640;28;20038;-74
2022/11/08 02:04:03;;;;;;;10.55;4.50;;;;;;;;;;4985329;28;20037;-74
2022/11/08 02:06:30;;;;;;;5.70;3.97;;;;;;;;;;4983517;28;20034;-74
2022/11/08 02:09:01;;;;;;;12.85;4.50;;;;;;;;;;4990639;28;20038;-74
2022/11/08 02:11:30;;;;;;;8.15;5.30;;;;;;;;;;4972633;28;20038;-74
2022/11/08 02:13:56;;;;;;;5.15;4.10;;;;;;;;;;4956590;28;20035;-73
2022/11/08 02:16:22;;;;;;;5.85;4.72;;;;;;;;;;4980780;28;20054;-73
2022/11/08 02:18:48;;;;;;;5.07;4.22;;;;;;;;;;4968713;28;20038;-73
2022/11/08 02:21:25;;;;;;;8.27;5.00;;;;;;;;;;4964941;28;20113;-72
2022/11/08 02:23:59;;;;;;;7.32;4.55;;;;;;;;;;5008026;23;20056;-79
2022/11/08 02:26:30;;;;;;;4.22;3.88;;;;;;;;;;4991328;28;20523;-79
2022/11/08 02:28:56;;;;;;;6.75;4.00;;;;;;;;;;5031161;28;20030;-79
2022/11/08 02:31:22;;;;;;;6.65;3.63;;;;;;;;;;4992172;28;20026;-79
2022/11/08 02:33:48;;;;;;;5.20;3.90;;;;;;;;;;5019821;28;20400;-79
2022/11/08 02:36:16;;;;;;;4.78;4.32;;;;;;;;;;5005416;28;20021;-79
2022/11/08 02:38:45;;;;;;;4.93;4.13;;;;;;;;;;5022009;28;20391;-79
2022/11/08 02:41:11;;;;;;;6.72;3.55;;;;;;;;;;5001412;28;20487;-78
2022/11/08 02:43:37;;;;;;;5.63;3.38;;;;;;;;;;5018030;28;20109;-79
2022/11/08 02:46:07;;;;;;;8.80;4.53;;;;;;;;;;5006768;28;20034;-79
2022/11/08 02:48:33;;;;;;;4.65;3.10;;;;;;;;;;5019774;28;20037;-79
2022/11/08 02:50:59;;;;;;;13.35;5.55;;;;;;;;;;4989917;28;20033;-78
2022/11/08 02:53:27;;;;;;;12.38;5.28;;;;;;;;;;5021721;28;20030;-78
2022/11/08 02:55:53;;;;;;;5.82;4.68;;;;;;;;;;5020657;28;20025;-79
2022/11/08 02:58:22;;;;;;;9.15;5.32;;;;;;;;;;5022750;28;20036;-78
2022/11/08 03:00:50;;;;;;;5.60;4.03;;;;;;;;;;5003942;28;20053;-78
2022/11/08 03:03:16;;;;;;;29.35;5.97;;;;;;;;;;4988442;28;20049;-78
2022/11/08 03:05:46;;;;;;;10.82;4.68;;;;;;;;;;5019846;28;20033;-78
2022/11/08 03:08:12;;;;;;;9.80;5.70;;;;;;;;;;5008222;28;20285;-78
2022/11/08 03:10:38;;;;;;;7.85;5.13;;;;;;;;;;5025238;28;20029;-79
2022/11/08 03:13:06;;;;;;;5.90;4.10;;;;;;;;;;5026650;28;20037;-78
2022/11/08 03:15:34;;;;;;;10.18;5.00;;;;;;;;;;5020724;28;20029;-78
2022/11/08 03:18:01;;;;;;;5.65;3.95;;;;;;;;;;5004993;28;20106;-79
2022/11/08 03:20:27;;;;;;;9.68;3.67;;;;;;;;;;5024571;28;20030;-79
2022/11/08 03:23:00;;;;;;;6.55;3.88;;;;;;;;;;5024450;28;20041;-79
2022/11/08 03:25:28;;;;;;;5.60;4.57;;;;;;;;;;5007936;28;21535;-78
2022/11/08 03:27:55;;;;;;;4.15;3.75;;;;;;;;;;5023524;28;20033;-79
2022/11/08 03:30:24;;;;;;;8.60;3.90;;;;;;;;;;5001210;28;20033;-78
2022/11/08 03:32:49;;;;;;;4.57;3.25;;;;;;;;;;5004349;28;20033;-78
2022/11/08 03:35:16;;;;;;;5.15;2.88;;;;;;;;;;4991011;28;20435;-79
2022/11/08 03:37:48;;;;;;;5.35;2.92;;;;;;;;;;5024034;28;20355;-79
2022/11/08 03:40:14;;;;;;;8.05;3.42;;;;;;;;;;5026578;28;20038;-78
2022/11/08 03:42:42;;;;;;;3.40;3.08;;;;;;;;;;5023346;28;20037;-78
2022/11/08 03:45:11;;;;;;;4.40;2.80;;;;;;;;;;5008461;28;20033;-79
2022/11/08 03:47:41;;;;;;;5.00;3.70;;;;;;;;;;5009678;28;20045;-79
2022/11/08 03:50:07;;;;;;;4.05;3.65;;;;;;;;;;5025771;28;20021;-79
2022/11/08 03:52:51;;;;;;;4.90;3.60;;;;;;;;;;5009190;28;20479;-79
2022/11/08 03:55:18;;;;;;;3.20;2.60;;;;;;;;;;5021666;28;21178;-78
2022/11/08 03:57:47;;;;;;;3.85;2.88;;;;;;;;;;5022104;28;20049;-79
2022/11/08 04:00:14;;;;;;;4.70;3.17;;;;;;;;;;5021723;28;20041;-78
2022/11/08 04:02:40;;;;;;;3.67;2.63;;;;;;;;;;5020053;28;20036;-79
2022/11/08 04:05:12;;;;;;;4.15;3.17;;;;;;;;;;5005544;28;20108;-78
2022/11/08 04:07:38;;;;;;;3.70;2.80;;;;;;;;;;4975422;28;20040;-79
2022/11/08 04:10:07;;;;;;;5.20;4.65;;;;;;;;;;5022297;28;20029;-79
2022/11/08 04:15:21;;;;;;;4.45;4.05;;;;;;;;;;5021572;28;20737;-78
2022/11/08 04:23:17;;;;;;;3.60;2.63;;;;;;;;;;5026573;28;20044;-79
2022/11/08 04:25:51;;;;;;;5.72;5.22;;;;;;;;;;5013707;28;20092;-79
2022/11/08 04:28:17;;;;;;;5.07;4.45;;;;;;;;;;5012195;28;20033;-78
2022/11/08 04:30:43;;;;;;;9.05;5.05;;;;;;;;;;5003709;28;20499;-78
2022/11/08 04:33:09;;;;;;;6.72;4.97;;;;;;;;;;5027387;28;20076;-80
2022/11/08 04:35:38;;;;;;;13.30;6.75;;;;;;;;;;5031002;28;20083;-77
2022/11/08 04:38:03;;;;;;;12.00;5.82;;;;;;;;;;5027941;28;20029;-78
2022/11/08 04:40:30;;;;;;;20.83;6.70;;;;;;;;;;5029569;28;20471;-78
2022/11/08 04:43:01;;;;;;;12.55;5.70;;;;;;;;;;5012474;28;20384;-78
2022/11/08 04:45:27;;;;;;;23.30;6.63;;;;;;;;;;5028684;28;20030;-78
2022/11/08 04:47:53;;;;;;;7.32;5.05;;;;;;;;;;5024570;28;20483;-78
2022/11/08 04:50:21;;;;;;;10.20;5.20;;;;;;;;;;5030582;28;20040;-78
2022/11/08 04:52:51;;;;;;;38.35;8.82;;;;;;;;;;5009230;28;20034;-78
2022/11/08 04:55:20;;;;;;;15.57;7.00;;;;;;;;;;5024223;28;20495;-78
2022/11/08 04:57:46;;;;;;;49.47;10.32;;;;;;;;;;5008341;28;20731;-78
2022/11/08 05:00:12;;;;;;;24.50;7.78;;;;;;;;;;4983270;28;20056;-78
2022/11/08 05:02:38;;;;;;;10.88;6.15;;;;;;;;;;5010973;28;20021;-79
2022/11/08 05:05:04;;;;;;;18.45;6.55;;;;;;;;;;5024704;28;20083;-78
2022/11/08 05:07:33;;;;;;;21.85;7.05;;;;;;;;;;5011115;28;20026;-78
2022/11/08 05:10:03;;;;;;;12.55;5.20;;;;;;;;;;5003754;28;20530;-78
2022/11/08 05:12:29;;;;;;;12.38;4.38;;;;;;;;;;5023522;28;20391;-78
2022/11/08 05:14:55;;;;;;;43.47;7.47;;;;;;;;;;5008496;28;20091;-78
2022/11/08 05:17:21;;;;;;;72.45;10.30;;;;;;;;;;5024652;28;20021;-78
2022/11/08 05:25:20;;;;;;;14.68;6.00;;;;;;;;;;5021453;28;20395;-78
2022/11/08 05:27:46;;;;;;;31.85;5.78;;;;;;;;;;5020510;28;20395;-78
2022/11/08 05:30:12;;;;;;;43.72;6.90;;;;;;;;;;5004672;28;20087;-78
2022/11/08 05:32:40;;;;;;;27.23;5.43;;;;;;;;;;5005702;28;20021;-78
2022/11/08 05:35:06;;;;;;;10.57;4.00;;;;;;;;;;5029327;28;20395;-78
2022/11/08 05:37:32;;;;;;;22.85;5.45;;;;;;;;;;5031058;28;20026;-78
2022/11/08 05:39:58;;;;;;;9.25;4.63;;;;;;;;;;5028629;28;20029;-78
2022/11/08 05:42:26;;;;;;;23.50;5.47;;;;;;;;;;5013735;28;20044;-77
2022/11/08 05:44:54;;;;;;;21.85;7.60;;;;;;;;;;5009864;28;20407;-78
2022/11/08 05:47:20;;;;;;;24.33;5.60;;;;;;;;;;5011691;28;20037;-78
2022/11/08 05:49:46;;;;;;;8.98;5.45;;;;;;;;;;5028649;28;20056;-77
2022/11/08 05:52:14;;;;;;;5.63;4.97;;;;;;;;;;5004735;28;20032;-78
2022/11/08 05:54:40;;;;;;;10.25;7.03;;;;;;;;;;5029801;28;20034;-78
2022/11/08 05:57:06;;;;;;;7.75;6.07;;;;;;;;;;4995844;28;20056;-78
2022/11/08 05:59:36;;;;;;;14.18;7.88;;;;;;;;;;5029802;28;20048;-78
2022/11/08 06:02:04;;;;;;;12.35;8.00;;;;;;;;;;5026475;28;20033;-77
2022/11/08 06:04:33;;;;;;;6.38;5.10;;;;;;;;;;5012201;28;20036;-78
2022/11/08 06:07:01;;;;;;;6.22;5.63;;;;;;;;;;5021318;28;20052;-77
2022/11/08 06:09:31;;;;;;;5.55;5.00;;;;;;;;;;5021034;28;20034;-77
2022/11/08 06:12:00;;;;;;;5.13;4.63;;;;;;;;;;4995909;28;20025;-78
2022/11/08 06:14:25;;;;;;;4.18;3.55;;;;;;;;;;5012361;28;20033;-77
2022/11/08 06:16:51;;;;;;;3.90;3.50;;;;;;;;;;5026165;28;20368;-77
2022/11/08 06:19:19;;;;;;;3.15;2.85;;;;;;;;;;5026049;28;20025;-77
2022/11/08 06:21:48;;;;;;;4.35;2.83;;;;;;;;;;5017281;28;20503;-77
2022/11/08 06:24:14;;;;;;;4.15;3.75;;;;;;;;;;5051336;28;20021;-78
2022/11/08 06:26:47;;;;;;;3.67;3.22;;;;;;;;;;5054412;28;20017;-78
2022/11/08 06:29:13;;;;;;;5.38;3.55;;;;;;;;;;5034996;28;20038;-78
2022/11/08 06:31:39;;;;;;;4.50;4.03;;;;;;;;;;5010543;28;20056;-77
2022/11/08 06:34:05;;;;;;;5.65;3.97;;;;;;;;;;5029534;28;20034;-78
2022/11/08 06:36:31;;;;;;;3.45;3.15;;;;;;;;;;5028406;28;20029;-77
2022/11/08 06:38:59;;;;;;;3.38;2.95;;;;;;;;;;5016274;28;20033;-77
2022/11/08 06:41:28;;;;;;;3.78;3.47;;;;;;;;;;5011882;28;20033;-77
2022/11/08 06:43:55;;;;;;;5.35;3.45;;;;;;;;;;5033256;28;20037;-77
2022/11/08 06:46:23;;;;;;;4.78;3.42;;;;;;;;;;5028666;28;20025;-78
2022/11/08 06:48:49;;;;;;;4.60;3.88;;;;;;;;;;5024179;28;20037;-77
2022/11/08 06:51:17;;;;;;;3.38;2.95;;;;;;;;;;5031229;28;20476;-78
2022/11/08 06:53:45;;;;;;;4.43;4.03;;;;;;;;;;5021183;28;20052;-77
2022/11/08 06:56:13;;;;;;;4.32;3.78;;;;;;;;;;5033200;28;20033;-77
2022/11/08 06:58:39;;;;;;;6.22;5.25;;;;;;;;;;4997600;28;20030;-77
2022/11/08 07:01:09;;;;;;;5.22;4.20;;;;;;;;;;5033257;28;20028;-78
2022/11/08 07:03:39;;;;;;;3.42;3.13;;;;;;;;;;5031759;28;20395;-77
2022/11/08 07:06:05;;;;;;;4.32;3.25;;;;;;;;;;5028749;28;20030;-78
2022/11/08 07:08:34;;;;;;;4.03;3.38;;;;;;;;;;5029857;28;20033;-77
2022/11/08 07:11:00;;;;;;;5.00;3.03;;;;;;;;;;5029034;28;20037;-78
2022/11/08 07:13:26;;;;;;;4.53;3.85;;;;;;;;;;5032900;28;20052;-77
2022/11/08 07:15:55;;;;;;;4.28;3.35;;;;;;;;;;5009576;28;20034;-78
2022/11/08 07:18:24;;;;;;;6.40;4.22;;;;;;;;;;4995375;28;20036;-77
2022/11/08 07:20:56;;;;;;;4.65;3.72;;;;;;;;;;5032299;28;20037;-78
2022/11/08 07:23:22;;;;;;;4.35;3.97;;;;;;;;;;5013705;28;20049;-77
2022/11/08 07:25:48;;;;;;;9.18;6.05;;;;;;;;;;5028881;28;20471;-77
2022/11/08 07:28:17;;;;;;;5.45;4.95;;;;;;;;;;5031995;28;20562;-78
2022/11/08 07:30:46;;;;;;;6.93;6.25;;;;;;;;;;5024695;28;20044;-78
2022/11/08 07:33:12;;;;;;;6.30;5.25;;;;;;;;;;5010552;28;20045;-78
2022/11/08 07:35:41;;;;;;;9.32;6.03;;;;;;;;;;5022737;28;20387;-78
2022/11/08 07:38:09;;;;;;;5.60;4.70;;;;;;;;;;5031326;28;20025;-78
2022/11/08 07:40:37;;;;;;;6.03;5.13;;;;;;;;;;5025945;28;20100;-78
2022/11/08 07:43:03;;;;;;;9.00;7.93;;;;;;;;;;5029113;28;20036;-78
2022/11/08 07:45:29;;;;;;;7.13;6.28;;;;;;;;;;5010178;28;20021;-78
2022/11/08 07:48:00;;;;;;;7.07;5.38;;;;;;;;;;5011938;28;20021;-78
2022/11/08 07:50:31;;;;;;;5.30;4.72;;;;;;;;;;5017392;28;21384;-78
2022/11/08 07:53:04;;;;;;;9.95;5.70;;;;;;;;;;4994416;28;20028;-78
2022/11/08 07:55:30;;;;;;;9.40;6.82;;;;;;;;;;5007937;28;20391;-78
2022/11/08 07:58:00;;;;;;;9.38;6.35;;;;;;;;;;5008248;28;20037;-78
2022/11/08 08:00:29;;;;;;;9.65;6.85;;;;;;;;;;4995594;28;20045;-78
2022/11/08 08:02:58;;;;;;;10.10;7.35;;;;;;;;;;5008330;28;20037;-78
2022/11/08 08:05:25;;;;;;;8.90;7.20;;;;;;;;;;5026738;28;20033;-78
2022/11/08 08:07:54;;;;;;;9.48;8.10;;;;;;;;;;5010362;28;20036;-78
2022/11/08 08:10:23;;;;;;;13.88;8.35;;;;;;;;;;4993294;28;20056;-78
2022/11/08 08:12:51;;;;;;;11.32;7.50;;;;;;;;;;5026323;28;20459;-78
2022/11/08 08:15:19;;;;;;;10.43;9.35;;;;;;;;;;5029003;28;20025;-78
2022/11/08 08:17:45;;;;;;;9.52;8.57;;;;;;;;;;5011568;28;20091;-78
2022/11/08 08:20:11;;;;;;;9.30;6.28;;;;;;;;;;5019881;28;20116;-78
2022/11/08 08:22:42;;;;;;;10.38;7.45;;;;;;;;;;5032163;28;20036;-78
2022/11/08 08:25:10;;;;;;;12.38;8.32;;;;;;;;;;5029721;28;20033;-78
2022/11/08 08:27:41;;;;;;;11.98;8.02;;;;;;;;;;5029407;28;20502;-78
2022/11/08 08:30:09;;;;;;;8.73;7.80;;;;;;;;;;4996092;28;20041;-78
2022/11/08 08:32:35;;;;;;;6.10;5.13;;;;;;;;;;5016728;28;20034;-78
2022/11/08 08:35:01;;;;;;;6.22;4.63;;;;;;;;;;5007786;28;20033;-79
2022/11/08 08:37:27;;;;;;;7.13;4.50;;;;;;;;;;4997849;28;20479;-78
2022/11/08 08:39:55;;;;;;;5.55;3.70;;;;;;;;;;5028552;28;20033;-78
2022/11/08 08:42:21;;;;;;;5.50;4.68;;;;;;;;;;5009411;28;20041;-79
2022/11/08 08:44:46;;;;;;;4.63;4.20;;;;;;;;;;5021236;28;20038;-79
2022/11/08 08:47:12;;;;;;;4.85;4.38;;;;;;;;;;5031643;28;20021;-79
2022/11/08 08:49:38;;;;;;;7.60;5.47;;;;;;;;;;5028196;28;20037;-79
2022/11/08 08:52:06;;;;;;;6.20;5.35;;;;;;;;;;5012604;28;20033;-81
2022/11/08 08:54:35;;;;;;;5.38;4.82;;;;;;;;;;5013998;28;20484;-80
2022/11/08 08:57:03;;;;;;;5.25;4.38;;;;;;;;;;5028071;28;20029;-80
2022/11/08 08:59:29;;;;;;;6.78;5.00;;;;;;;;;;5029926;28;20025;-80
2022/11/08 09:01:58;;;;;;;6.82;5.68;;;;;;;;;;5028107;28;20040;-80
2022/11/08 09:04:27;;;;;;;8.77;5.75;;;;;;;;;;5022425;28;20034;-79
2022/11/08 09:06:55;;;;;;;5.18;4.68;;;;;;;;;;5004294;28;20033;-81
2022/11/08 09:09:23;;;;;;;5.43;4.75;;;;;;;;;;5007492;28;20487;-81
2022/11/08 09:11:54;;;;;;;6.25;5.65;;;;;;;;;;5025897;28;20036;-81
2022/11/08 09:14:19;;;;;;;7.97;6.82;;;;;;;;;;5010876;28;20029;-80
2022/11/08 09:16:45;;;;;;;5.38;4.45;;;;;;;;;;5027242;28;20034;-80
2022/11/08 09:19:11;;;;;;;7.13;5.90;;;;;;;;;;4997031;28;20096;-80
2022/11/08 09:21:39;;;;;;;7.18;4.93;;;;;;;;;;5030485;28;20025;-80
2022/11/08 09:24:07;;;;;;;4.68;4.25;;;;;;;;;;5029867;28;20032;-80
2022/11/08 09:26:38;;;;;;;5.82;4.80;;;;;;;;;;5014385;28;20040;-80
2022/11/08 09:29:04;;;;;;;6.85;5.25;;;;;;;;;;5007850;28;20029;-80
2022/11/08 09:31:32;;;;;;;4.75;4.35;;;;;;;;;;5028458;28;20034;-80
2022/11/08 09:33:58;;;;;;;5.07;4.57;;;;;;;;;;5013199;28;20065;-80
2022/11/08 09:36:24;;;;;;;8.32;5.53;;;;;;;;;;5014302;28;20028;-80
2022/11/08 09:38:52;;;;;;;5.68;4.65;;;;;;;;;;5013223;28;20061;-80
2022/11/08 09:41:18;;;;;;;5.45;4.13;;;;;;;;;;5014258;28;20030;-80
2022/11/08 09:43:51;;;;;;;5.82;5.22;;;;;;;;;;5010843;28;20547;-80
2022/11/08 09:46:32;;;;;;;5.32;3.92;;;;;;;;;;4996628;28;20029;-80
2022/11/08 09:48:59;;;;;;;5.07;4.57;;;;;;;;;;5012755;28;20510;-80
2022/11/08 09:51:25;;;;;;;5.35;4.85;;;;;;;;;;5031767;28;20052;-80
2022/11/08 09:53:51;;;;;;;6.13;4.75;;;;;;;;;;5028506;28;20037;-80
2022/11/08 09:56:22;;;;;;;6.00;4.20;;;;;;;;;;5012438;28;20034;-80
2022/11/08 09:59:01;;;;;;;4.82;4.32;;;;;;;;;;5022791;28;20029;-80
2022/11/08 10:01:33;;;;;;;4.82;3.67;;;;;;;;;;5013181;28;20033;-80
2022/11/08 10:04:04;;;;;;;5.45;4.32;;;;;;;;;;5031421;28;20399;-80
2022/11/08 10:06:42;;;;;;;4.10;3.70;;;;;;;;;;5006525;28;20026;-80
2022/11/08 10:09:11;;;;;;;4.93;3.97;;;;;;;;;;5013354;28;20038;-80
2022/11/08 10:11:56;;;;;;;4.88;4.40;;;;;;;;;;5022539;28;20025;-80
2022/11/08 10:14:34;;;;;;;4.63;4.20;;;;;;;;;;5012903;28;20021;-82
2022/11/08 10:17:18;;;;;;;10.20;5.03;;;;;;;;;;5030517;28;20029;-84
2022/11/08 10:19:44;;;;;;;4.35;3.38;;;;;;;;;;5029508;28;20041;-80
2022/11/08 10:22:25;;;;;;;6.25;4.63;;;;;;;;;;5027289;28;20057;-80
2022/11/08 10:25:09;;;;;;;4.38;3.55;;;;;;;;;;5031282;28;20037;-80
2022/11/08 10:27:40;;;;;;;4.25;3.65;;;;;;;;;;5026249;28;20470;-80
2022/11/08 10:30:29;;;;;;;4.40;3.70;;;;;;;;;;4999708;28;20530;-80
2022/11/08 10:32:58;;;;;;;4.75;3.45;;;;;;;;;;5015948;28;20021;-80
2022/11/08 10:35:26;;;;;;;6.57;4.97;;;;;;;;;;5016363;28;20040;-80
2022/11/08 10:37:58;;;;;;;5.90;5.22;;;;;;;;;;5015622;28;20025;-80
2022/11/08 10:40:37;;;;;;;8.77;4.28;;;;;;;;;;5015798;28;20036;-81
2022/11/08 10:43:10;;;;;;;4.55;4.00;;;;;;;;;;5028971;28;20518;-79
2022/11/08 10:45:41;;;;;;;4.70;4.30;;;;;;;;;;5032261;28;20029;-79
2022/11/08 10:48:09;;;;;;;5.47;4.35;;;;;;;;;;5010545;28;20045;-78
2022/11/08 10:50:43;;;;;;;7.18;4.22;;;;;;;;;;5013863;28;20060;-79
2022/11/08 10:53:31;;;;;;;6.07;3.65;;;;;;;;;;5034444;28;20021;-79
2022/11/08 10:55:59;;;;;;;3.83;3.47;;;;;;;;;;5014535;28;20037;-79
2022/11/08 10:58:37;;;;;;;5.53;3.63;;;;;;;;;;5016178;28;20036;-79
2022/11/08 11:01:03;;;;;;;6.88;4.22;;;;;;;;;;5008577;28;20032;-78
2022/11/08 11:03:32;;;;;;;4.00;3.60;;;;;;;;;;5033488;28;20037;-79
2022/11/08 11:06:03;;;;;;;4.65;3.70;;;;;;;;;;5031288;28;20498;-79
2022/11/08 11:08:31;;;;;;;3.95;3.10;;;;;;;;;;5001351;28;20032;-79
2022/11/08 11:11:19;;;;;;;3.53;3.22;;;;;;;;;;5015981;28;20044;-79
2022/11/08 11:14:06;;;;;;;7.47;3.65;;;;;;;;;;5000815;28;20029;-79
2022/11/08 11:16:31;;;;;;;4.72;3.55;;;;;;;;;;5028816;28;20033;-79
2022/11/08 11:19:02;;;;;;;3.17;2.42;;;;;;;;;;5028539;23;20084;-73
2022/11/08 11:21:36;;;;;;;3.33;2.72;;;;;;;;;;5031526;28;20407;-73
2022/11/08 11:24:06;;;;;;;2.83;2.53;;;;;;;;;;5045170;28;20219;-73
2022/11/08 11:26:38;;;;;;;5.53;2.90;;;;;;;;;;5031118;28;20487;-73
2022/11/08 11:29:04;;;;;;;3.17;2.28;;;;;;;;;;5026670;28;20033;-74
2022/11/08 11:31:39;;;;;;;3.22;2.22;;;;;;;;;;5027535;28;20039;-73
2022/11/08 11:34:17;;;;;;;6.97;2.50;;;;;;;;;;5024132;28;20044;-74
2022/11/08 11:36:48;;;;;;;3.22;2.67;;;;;;;;;;5032305;28;20037;-73
2022/11/08 11:39:28;;;;;;;3.78;2.42;;;;;;;;;;5030967;28;20685;-74
2022/11/08 11:42:02;;;;;;;4.03;2.92;;;;;;;;;;5032030;28;20048;-74
2022/11/08 11:44:34;;;;;;;2.80;2.25;;;;;;;;;;5031588;28;20037;-73
2022/11/08 11:47:23;;;;;;;3.17;2.42;;;;;;;;;;5023840;28;20041;-73
2022/11/08 11:49:50;;;;;;;5.05;2.80;;;;;;;;;;5013936;28;20029;-73
2022/11/08 11:52:19;;;;;;;2.88;2.42;;;;;;;;;;5028997;28;20028;-75
2022/11/08 11:54:48;;;;;;;2.78;2.47;;;;;;;;;;5030994;28;20032;-74
2022/11/08 11:57:24;;;;;;;3.17;2.35;;;;;;;;;;5030250;28;20419;-74
2022/11/08 12:00:03;;;;;;;7.35;2.45;;;;;;;;;;5018518;28;20041;-74
2022/11/08 12:02:46;;;;;;;3.40;2.97;;;;;;;;;;5029265;28;20484;-74
2022/11/08 12:05:13;;;;;;;6.00;2.45;;;;;;;;;;4998421;28;20044;-75
2022/11/08 12:07:43;;;;;;;7.18;3.20;;;;;;;;;;5034377;28;20036;-74
2022/11/08 12:10:33;;;;;;;3.45;2.70;;;;;;;;;;5028634;28;20042;-75
2022/11/08 12:13:02;;;;;;;3.67;2.00;;;;;;;;;;5028564;28;20029;-75
2022/11/08 12:15:37;;;;;;;3.42;2.28;;;;;;;;;;5030088;28;20032;-75
2022/11/08 12:18:24;;;;;;;3.67;2.10;;;;;;;;;;5025250;28;20398;-75
2022/11/08 12:20:53;;;;;;;2.78;2.40;;;;;;;;;;5031380;28;20040;-74
2022/11/08 12:23:38;;;;;;;3.80;3.17;;;;;;;;;;5027659;28;20052;-74
2022/11/08 12:26:16;;;;;;;4.18;2.17;;;;;;;;;;5026816;28;20384;-74
2022/11/08 12:28:51;;;;;;;2.92;2.08;;;;;;;;;;5025163;28;20026;-75
2022/11/08 12:31:25;;;;;;;2.90;2.50;;;;;;;;;;5028573;28;20030;-74
2022/11/08 12:33:57;;;;;;;3.97;3.35;;;;;;;;;;5030498;28;20032;-75
2022/11/08 12:36:23;;;;;;;4.72;2.20;;;;;;;;;;5028161;28;20488;-74
2022/11/08 12:38:51;;;;;;;4.20;2.08;;;;;;;;;;5029670;28;20033;-75
2022/11/08 12:41:36;;;;;;;6.25;3.30;;;;;;;;;;5030972;28;20022;-74
2022/11/08 12:44:18;;;;;;;5.10;2.88;;;;;;;;;;5030315;28;20033;-75
2022/11/08 12:46:55;;;;;;;2.97;2.78;;;;;;;;;;5028077;28;20029;-75
2022/11/08 12:49:29;;;;;;;3.40;2.90;;;;;;;;;;5030113;28;20025;-74
2022/11/08 12:52:10;;;;;;;6.07;2.83;;;;;;;;;;5037614;28;20059;-74
2022/11/08 12:54:41;;;;;;;2.95;2.65;;;;;;;;;;5032136;28;20029;-75
2022/11/08 12:57:15;;;;;;;3.08;2.47;;;;;;;;;;5028222;28;20034;-74
2022/11/08 13:00:12;;;;;;;4.03;2.40;;;;;;;;;;5028811;28;20040;-75
2022/11/08 13:02:39;;;;;;;4.82;3.38;;;;;;;;;;5008205;28;20041;-75
2022/11/08 13:05:12;;;;;;;4.22;2.47;;;;;;;;;;5029685;28;20052;-74
2022/11/08 13:07:44;;;;;;;4.03;2.78;;;;;;;;;;5025454;28;20034;-75
2022/11/08 13:10:13;;;;;;;4.73;2.47;;;;;;;;;;5027648;28;20029;-75
2022/11/08 13:13:02;;;;;;;4.38;2.72;;;;;;;;;;5030291;28;20036;-74
2022/11/08 13:15:30;;;;;;;8.68;3.00;;;;;;;;;;5027398;28;20032;-75
2022/11/08 13:18:20;;;;;;;2.70;2.30;;;;;;;;;;5027372;28;20313;-75
2022/11/08 13:20:47;;;;;;;6.03;2.58;;;;;;;;;;5023670;28;20044;-75
2022/11/08 13:23:25;;;;;;;4.65;2.67;;;;;;;;;;5024216;28;20408;-74
2022/11/08 13:25:53;;;;;;;3.78;1.95;;;;;;;;;;5026981;28;20034;-75
2022/11/08 13:28:35;;;;;;;7.78;2.50;;;;;;;;;;5030107;28;20036;-75
2022/11/08 13:31:22;;;;;;;3.53;2.55;;;;;;;;;;5028490;28;20030;-75
2022/11/08 13:33:59;;;;;;;4.65;2.83;;;;;;;;;;5028289;28;20029;-74
2022/11/08 13:36:36;;;;;;;2.92;2.50;;;;;;;;;;5025250;28;20025;-75
2022/11/08 13:39:25;;;;;;;5.18;2.40;;;;;;;;;;5030045;28;20029;-74
2022/11/08 13:42:20;;;;;;;2.47;1.77;;;;;;;;;;5027558;28;20033;-74
2022/11/08 13:45:07;;;;;;;3.30;2.45;;;;;;;;;;5029655;28;20060;-74
2022/11/08 13:47:32;;;;;;;3.45;2.50;;;;;;;;;;5019599;28;20041;-74
2022/11/08 13:50:19;;;;;;;4.20;2.08;;;;;;;;;;5024258;28;20399;-75
2022/11/08 13:53:00;;;;;;;3.72;2.97;;;;;;;;;;5025936;28;20040;-73
2022/11/08 13:55:41;;;;;;;6.47;3.15;;;;;;;;;;5029520;28;20034;-74
2022/11/08 13:58:28;;;;;;;3.17;2.67;;;;;;;;;;5027723;28;20025;-75
2022/11/08 14:00:58;;;;;;;3.97;1.98;;;;;;;;;;5027389;28;20037;-75
2022/11/08 14:03:46;;;;;;;3.92;3.60;;;;;;;;;;5029708;28;20509;-75
2022/11/08 14:06:39;;;;;;;6.22;5.72;;;;;;;;;;5018448;28;20041;-72
2022/11/08 14:09:07;;;;;;;3.13;2.83;;;;;;;;;;5034182;28;20046;-76
2022/11/08 14:11:39;;;;;;;3.00;2.70;;;;;;;;;;5025541;28;20048;-74
2022/11/08 14:14:16;;;;;;;4.68;2.72;;;;;;;;;;5025144;28;20037;-73
2022/11/08 14:17:00;;;;;;;4.18;3.50;;;;;;;;;;5027185;28;20036;-73
2022/11/08 14:19:30;;;;;;;2.88;2.17;;;;;;;;;;5026890;28;20050;-74
2022/11/08 14:22:00;;;;;;;2.95;2.28;;;;;;;;;;5011829;28;20056;-75
2022/11/08 14:24:28;;;;;;;6.43;2.78;;;;;;;;;;5026922;28;20447;-74
2022/11/08 14:26:56;;;;;;;5.15;3.05;;;;;;;;;;5028177;28;20401;-75
2022/11/08 14:29:23;;;;;;;5.82;2.38;;;;;;;;;;5028675;28;20060;-73
2022/11/08 14:32:02;;;;;;;3.42;2.92;;;;;;;;;;5028053;28;20045;-74
2022/11/08 14:34:29;;;;;;;3.38;2.47;;;;;;;;;;5025871;28;20026;-74
2022/11/08 14:36:55;;;;;;;6.80;3.65;;;;;;;;;;5028981;28;20032;-73
2022/11/08 14:39:32;;;;;;;3.60;2.95;;;;;;;;;;5022787;28;20033;-74
2022/11/08 14:41:59;;;;;;;3.08;2.78;;;;;;;;;;5042940;28;20030;-75
2022/11/08 14:44:28;;;;;;;5.45;2.70;;;;;;;;;;5011862;28;20036;-75
2022/11/08 14:46:57;;;;;;;7.55;3.13;;;;;;;;;;5027531;28;20041;-75
2022/11/08 14:49:31;;;;;;;3.45;3.03;;;;;;;;;;5028324;28;20032;-74
2022/11/08 14:52:05;;;;;;;3.30;3.00;;;;;;;;;;5028905;28;20029;-74
2022/11/08 14:54:42;;;;;;;6.03;2.70;;;;;;;;;;5028676;28;20025;-74
2022/11/08 14:57:26;;;;;;;5.63;2.58;;;;;;;;;;5042740;28;20032;-75
2022/11/08 14:59:52;;;;;;;3.47;3.13;;;;;;;;;;5029742;28;20029;-74
2022/11/08 15:02:18;;;;;;;25.73;3.75;;;;;;;;;;5019896;28;20389;-75
2022/11/08 15:04:44;;;;;;;2.78;2.38;;;;;;;;;;5031675;28;20480;-74
2022/11/08 15:07:09;;;;;;;3.17;2.22;;;;;;;;;;5031944;28;20395;-75
2022/11/08 15:09:37;;;;;;;4.97;3.13;;;;;;;;;;5033072;28;20056;-74
2022/11/08 15:12:07;;;;;;;4.78;2.15;;;;;;;;;;5032139;28;20491;-73
2022/11/08 15:14:39;;;;;;;5.22;2.85;;;;;;;;;;5034031;28;20383;-73
2022/11/08 15:17:05;;;;;;;4.30;3.20;;;;;;;;;;5028855;28;20378;-73
2022/11/08 15:19:37;;;;;;;6.60;3.20;;;;;;;;;;5031880;28;20388;-74
2022/11/08 15:22:21;;;;;;;5.00;2.55;;;;;;;;;;5025019;28;20044;-75